createdAt,value
2019-05-18T00:02:11.871Z,12.11
2019-05-18T00:04:40.094Z,12.12
2019-05-18T00:07:08.327Z,12.09
2019-05-18T00:09:36.557Z,12.05
2019-05-18T00:12:04.785Z,12.03
2019-05-18T00:14:32.993Z,12.03
2019-05-18T00:17:01.228Z,12.04
2019-05-18T00:19:29.459Z,12.06
2019-05-18T00:21:57.670Z,12.07
2019-05-18T00:24:25.896Z,12.07
2019-05-18T00:26:54.107Z,12.07
2019-05-18T00:29:22.390Z,12.07
2019-05-18T00:31:50.627Z,12.12
2019-05-18T00:34:18.866Z,12.19
2019-05-18T00:36:47.082Z,12.23
2019-05-18T00:39:15.297Z,12.25
2019-05-18T00:41:45.454Z,12.26
2019-05-18T00:44:13.508Z,12.24
2019-05-18T00:46:41.732Z,12.23
2019-05-18T00:49:09.946Z,12.22
2019-05-18T00:51:38.164Z,12.21
2019-05-18T00:54:06.386Z,12.22
2019-05-18T00:56:34.669Z,12.24
2019-05-18T00:59:02.897Z,12.27
2019-05-18T01:01:31.117Z,12.29
2019-05-18T01:03:59.352Z,12.28
2019-05-18T01:06:27.601Z,12.26
2019-05-18T01:08:55.812Z,12.25
2019-05-18T01:11:24.022Z,12.24
2019-05-18T01:13:52.243Z,12.24
2019-05-18T01:16:20.465Z,12.25
2019-05-18T01:18:48.679Z,12.27
2019-05-18T01:21:16.914Z,12.31
2019-05-18T01:23:45.140Z,12.33
2019-05-18T01:26:13.446Z,12.34
2019-05-18T01:28:41.680Z,12.33
2019-05-18T01:31:09.989Z,12.29
2019-05-18T01:33:38.204Z,12.25
2019-05-18T01:36:06.436Z,12.21
2019-05-18T01:38:34.661Z,12.17
2019-05-18T01:41:02.910Z,12.15
2019-05-18T01:43:31.104Z,12.12
2019-05-18T01:45:59.352Z,12.12
2019-05-18T01:48:27.561Z,12.07
2019-05-18T01:50:55.779Z,12.05
2019-05-18T01:53:24.092Z,12.01
2019-05-18T01:55:52.315Z,12.00
2019-05-18T01:58:20.526Z,12.00
2019-05-18T02:00:48.760Z,12.01
2019-05-18T02:03:17.002Z,12.04
2019-05-18T02:05:45.236Z,12.10
2019-05-18T02:08:13.448Z,12.16
2019-05-18T02:10:41.665Z,12.21
2019-05-18T02:13:09.917Z,12.26
2019-05-18T02:15:38.181Z,12.30
2019-05-18T02:18:06.378Z,12.34
2019-05-18T02:20:34.601Z,12.36
2019-05-18T02:23:02.839Z,12.37
2019-05-18T02:25:31.062Z,12.39
2019-05-18T02:27:59.277Z,12.41
2019-05-18T02:30:27.501Z,12.42
2019-05-18T02:32:55.709Z,12.40
2019-05-18T02:35:23.923Z,12.37
2019-05-18T02:37:52.147Z,12.32
2019-05-18T02:40:20.373Z,12.27
2019-05-18T02:42:48.582Z,12.21
2019-05-18T02:45:16.797Z,12.16
2019-05-18T02:47:45.030Z,12.11
2019-05-18T02:50:13.362Z,12.09
2019-05-18T02:52:41.597Z,12.07
2019-05-18T02:55:10.496Z,12.02
2019-05-18T02:57:38.702Z,12.00
2019-05-18T03:00:10.096Z,11.99
2019-05-18T03:02:38.317Z,11.98
2019-05-18T03:05:06.920Z,11.99
2019-05-18T03:07:35.132Z,11.97
2019-05-18T03:10:04.642Z,11.96
2019-05-18T03:12:32.881Z,11.94
2019-05-18T03:15:01.089Z,11.93
2019-05-18T03:17:29.306Z,11.92
2019-05-18T03:19:57.542Z,11.92
2019-05-18T03:22:25.795Z,11.90
2019-05-18T03:24:54.023Z,11.89
2019-05-18T03:27:22.230Z,11.89
2019-05-18T03:29:50.560Z,11.89
2019-05-18T03:32:19.388Z,11.90
2019-05-18T03:34:47.618Z,11.57
2019-05-18T03:37:15.856Z,11.92
2019-05-18T03:39:44.104Z,11.95
2019-05-18T03:42:12.326Z,12.00
2019-05-18T03:44:40.537Z,12.04
2019-05-18T03:47:08.760Z,12.09
2019-05-18T03:49:37.003Z,12.15
2019-05-18T03:52:05.227Z,12.27
2019-05-18T03:54:33.426Z,12.34
2019-05-18T03:57:01.653Z,12.34
2019-05-18T03:59:29.879Z,12.38
2019-05-18T04:01:58.117Z,12.40
2019-05-18T04:04:26.350Z,12.45
2019-05-18T04:06:54.565Z,12.48
2019-05-18T04:09:22.787Z,12.50
2019-05-18T04:11:51.100Z,12.60
2019-05-18T04:14:20.066Z,12.72
2019-05-18T04:16:48.308Z,12.96
2019-05-18T04:19:16.564Z,13.06
2019-05-18T04:21:44.777Z,13.36
2019-05-18T04:24:13.000Z,13.37
2019-05-18T04:26:41.260Z,13.31
2019-05-18T04:29:09.448Z,13.26
2019-05-18T04:31:37.709Z,13.23
2019-05-18T04:34:06.033Z,13.17
2019-05-18T04:36:34.258Z,13.11
2019-05-18T04:39:02.534Z,13.12
2019-05-18T04:41:30.711Z,13.31
2019-05-18T04:43:58.940Z,13.41
2019-05-18T04:46:27.275Z,13.91
2019-05-18T04:48:55.457Z,14.17
2019-05-18T04:51:23.697Z,14.09
2019-05-18T04:53:51.914Z,14.04
2019-05-18T04:56:20.150Z,13.93
2019-05-18T04:58:48.355Z,13.86
2019-05-18T05:01:16.571Z,13.92
2019-05-18T05:03:44.886Z,13.92
2019-05-18T05:06:13.175Z,13.90
2019-05-18T05:08:41.395Z,14.02
2019-05-18T05:11:09.625Z,14.22
2019-05-18T05:13:37.865Z,14.84
2019-05-18T05:16:06.080Z,15.29
2019-05-18T05:18:34.309Z,15.87
2019-05-18T05:21:02.539Z,16.27
2019-05-18T05:23:30.770Z,16.64
2019-05-18T05:25:58.999Z,16.78
2019-05-18T05:28:27.199Z,16.76
2019-05-18T05:30:55.426Z,16.52
2019-05-18T05:33:23.639Z,16.28
2019-05-18T05:35:51.865Z,16.18
2019-05-18T05:38:20.122Z,16.25
2019-05-18T05:40:48.312Z,16.30
2019-05-18T05:43:16.555Z,16.30
2019-05-18T05:45:44.806Z,16.60
2019-05-18T05:48:13.040Z,17.35
2019-05-18T05:50:41.254Z,18.44
2019-05-18T05:53:09.486Z,19.50
2019-05-18T05:55:37.747Z,19.89
2019-05-18T05:58:05.917Z,20.19
2019-05-18T06:00:34.137Z,20.36
2019-05-18T06:03:02.367Z,20.33
2019-05-18T06:05:30.587Z,20.41
2019-05-18T06:07:58.797Z,20.21
2019-05-18T06:10:27.074Z,19.88
2019-05-18T06:12:55.330Z,19.60
2019-05-18T06:15:23.486Z,19.15
2019-05-18T06:17:51.724Z,18.80
2019-05-18T06:20:19.932Z,18.60
2019-05-18T06:22:48.147Z,18.49
2019-05-18T06:25:16.425Z,18.46
2019-05-18T06:27:44.599Z,18.44
2019-05-18T06:30:12.809Z,18.44
2019-05-18T06:32:41.037Z,18.47
2019-05-18T06:35:09.292Z,18.54
2019-05-18T06:37:37.504Z,18.73
2019-05-18T06:40:07.568Z,18.99
2019-05-18T06:42:35.862Z,19.21
2019-05-18T06:45:06.329Z,19.35
2019-05-18T06:47:34.548Z,19.36
2019-05-18T06:50:03.282Z,19.36
2019-05-18T06:52:31.498Z,19.30
2019-05-18T06:54:59.708Z,19.41
2019-05-18T06:57:27.943Z,19.51
2019-05-18T06:59:56.188Z,19.65
2019-05-18T07:02:24.423Z,19.58
2019-05-18T07:04:52.631Z,19.39
2019-05-18T07:07:20.870Z,19.32
2019-05-18T07:09:49.095Z,19.32
2019-05-18T07:12:17.344Z,19.50
2019-05-18T07:14:45.589Z,19.55
2019-05-18T07:17:13.791Z,19.58
2019-05-18T07:19:42.055Z,19.71
2019-05-18T07:22:10.278Z,19.77
2019-05-18T07:24:38.519Z,19.85
2019-05-18T07:27:06.803Z,19.91
2019-05-18T07:29:35.070Z,20.03
2019-05-18T07:32:03.269Z,20.18
2019-05-18T07:34:31.485Z,20.16
2019-05-18T07:36:59.706Z,20.22
2019-05-18T07:39:27.997Z,20.36
2019-05-18T07:41:56.219Z,20.46
2019-05-18T07:44:24.442Z,20.62
2019-05-18T07:46:52.738Z,20.63
2019-05-18T07:49:20.947Z,20.55
2019-05-18T07:51:49.176Z,20.45
2019-05-18T07:54:17.396Z,20.68
2019-05-18T07:56:45.627Z,20.68
2019-05-18T07:59:13.882Z,20.90
2019-05-18T08:01:42.118Z,21.10
2019-05-18T08:04:10.336Z,21.22
2019-05-18T08:06:38.627Z,21.29
2019-05-18T08:09:07.901Z,21.31
2019-05-18T08:11:36.204Z,21.42
2019-05-18T08:14:04.417Z,21.61
2019-05-18T08:16:32.644Z,21.72
2019-05-18T08:19:00.863Z,21.86
2019-05-18T08:21:29.109Z,21.93
2019-05-18T08:23:57.318Z,21.97
2019-05-18T08:26:25.587Z,22.07
2019-05-18T08:28:53.805Z,22.18
2019-05-18T08:31:22.027Z,22.23
2019-05-18T08:33:50.253Z,22.23
2019-05-18T08:36:18.550Z,22.27
2019-05-18T08:38:46.755Z,22.33
2019-05-18T08:41:14.979Z,22.35
2019-05-18T08:43:43.218Z,22.33
2019-05-18T08:46:11.433Z,22.38
2019-05-18T08:48:39.751Z,22.32
2019-05-18T08:51:07.987Z,22.26
2019-05-18T08:53:36.204Z,22.25
2019-05-18T08:56:04.422Z,22.23
2019-05-18T08:58:32.659Z,22.27
2019-05-18T09:01:00.873Z,22.37
2019-05-18T09:03:29.106Z,22.50
2019-05-18T09:05:57.343Z,22.61
2019-05-18T09:08:25.543Z,22.65
2019-05-18T09:10:53.780Z,22.60
2019-05-18T09:13:22.031Z,22.61
2019-05-18T09:15:50.499Z,22.64
2019-05-18T09:18:18.785Z,22.61
2019-05-18T09:20:47.116Z,22.63
2019-05-18T09:23:15.331Z,22.67
2019-05-18T09:25:43.545Z,22.77
2019-05-18T09:28:11.775Z,22.88
2019-05-18T09:30:41.380Z,22.95
2019-05-18T09:33:09.693Z,22.97
2019-05-18T09:35:37.909Z,22.98
2019-05-18T09:38:06.124Z,22.96
2019-05-18T09:40:34.343Z,23.06
2019-05-18T09:43:02.613Z,23.06
2019-05-18T09:45:30.828Z,23.12
2019-05-18T09:47:59.043Z,23.04
2019-05-18T09:50:27.358Z,23.02
2019-05-18T09:52:55.567Z,22.93
2019-05-18T09:55:23.780Z,22.82
2019-05-18T09:57:52.008Z,22.82
2019-05-18T10:00:21.872Z,22.93
2019-05-18T10:02:51.767Z,22.92
2019-05-18T10:05:20.304Z,22.80
2019-05-18T10:07:48.716Z,22.61
2019-05-18T10:10:16.915Z,22.61
2019-05-18T10:12:45.152Z,22.62
2019-05-18T10:15:13.890Z,22.52
2019-05-18T10:17:42.115Z,22.54
2019-05-18T10:20:10.332Z,22.69
2019-05-18T10:22:53.101Z,22.94
2019-05-18T10:25:08.533Z,23.18
2019-05-18T10:27:36.736Z,23.42
2019-05-18T10:30:07.001Z,23.50
2019-05-18T10:32:35.181Z,23.50
2019-05-18T10:35:05.759Z,23.62
2019-05-18T10:37:34.086Z,23.72
2019-05-18T10:40:02.785Z,23.73
2019-05-18T10:42:31.070Z,23.66
2019-05-18T10:44:59.332Z,23.72
2019-05-18T10:47:27.555Z,23.78
2019-05-18T10:49:55.770Z,23.83
2019-05-18T10:52:24.018Z,23.88
2019-05-18T10:54:52.224Z,24.01
2019-05-18T10:57:20.421Z,24.19
2019-05-18T10:59:48.736Z,24.14
2019-05-18T11:02:16.965Z,24.11
2019-05-18T11:04:45.190Z,24.09
2019-05-18T11:07:13.415Z,24.14
2019-05-18T11:09:41.821Z,24.12
2019-05-18T11:12:10.024Z,24.18
2019-05-18T11:14:38.261Z,24.26
2019-05-18T11:17:06.449Z,24.24
2019-05-18T11:19:34.673Z,24.16
2019-05-18T11:22:02.886Z,24.06
2019-05-18T11:24:31.120Z,24.09
2019-05-18T11:26:59.331Z,24.15
2019-05-18T11:29:27.599Z,24.23
2019-05-18T11:31:55.872Z,24.31
2019-05-18T11:34:24.126Z,24.49
2019-05-18T11:36:52.365Z,24.65
2019-05-18T11:39:20.584Z,24.76
2019-05-18T11:41:48.790Z,24.72
2019-05-18T11:44:17.050Z,24.66
2019-05-18T11:46:45.253Z,24.75
2019-05-18T11:49:13.510Z,24.84
2019-05-18T11:51:41.750Z,24.88
2019-05-18T11:54:09.964Z,24.98
2019-05-18T11:56:38.187Z,24.88
2019-05-18T11:59:06.436Z,24.77
2019-05-18T12:01:34.647Z,24.62
2019-05-18T12:04:02.862Z,24.62
2019-05-18T12:06:31.107Z,24.62
2019-05-18T12:08:59.327Z,24.62
2019-05-18T12:11:27.599Z,24.51
2019-05-18T12:13:55.756Z,24.44
2019-05-18T12:16:24.001Z,24.45
2019-05-18T12:18:52.237Z,24.27
2019-05-18T12:21:20.446Z,24.21
2019-05-18T12:23:48.654Z,24.24
2019-05-18T12:26:16.871Z,24.22
2019-05-18T12:28:45.352Z,24.25
2019-05-18T12:31:13.568Z,24.11
2019-05-18T12:33:41.793Z,23.95
2019-05-18T12:36:10.056Z,24.06
2019-05-18T12:38:38.285Z,24.21
2019-05-18T12:41:06.566Z,24.38
2019-05-18T12:43:34.780Z,24.41
2019-05-18T12:46:03.021Z,24.19
2019-05-18T12:48:31.229Z,23.87
2019-05-18T12:50:59.446Z,23.69
2019-05-18T12:53:27.707Z,23.79
2019-05-18T12:55:55.914Z,23.90
2019-05-18T12:58:24.136Z,24.07
2019-05-18T13:00:52.434Z,24.25
2019-05-18T13:03:20.669Z,24.39
2019-05-18T13:05:48.877Z,24.52
2019-05-18T13:08:17.099Z,24.62
2019-05-18T13:10:45.323Z,24.73
2019-05-18T13:13:13.617Z,24.82
2019-05-18T13:15:41.813Z,24.93
2019-05-18T13:18:10.015Z,25.01
2019-05-18T13:20:38.291Z,25.07
2019-05-18T13:23:06.496Z,25.10
2019-05-18T13:25:34.709Z,25.14
2019-05-18T13:28:02.945Z,25.17
2019-05-18T13:30:31.150Z,25.16
2019-05-18T13:32:59.364Z,25.21
2019-05-18T13:35:28.390Z,25.28
2019-05-18T13:37:56.603Z,25.23
2019-05-18T13:40:24.820Z,25.17
2019-05-18T13:42:53.053Z,25.14
2019-05-18T13:45:21.332Z,25.16
2019-05-18T13:47:49.565Z,25.19
2019-05-18T13:50:17.921Z,25.27
2019-05-18T13:52:46.153Z,25.45
2019-05-18T13:55:14.379Z,25.66
2019-05-18T13:57:42.619Z,25.82
2019-05-18T14:00:10.849Z,25.76
2019-05-18T14:02:39.107Z,25.64
2019-05-18T14:05:08.341Z,25.63
2019-05-18T14:07:36.578Z,25.66
2019-05-18T14:10:07.686Z,25.74
2019-05-18T14:12:35.886Z,25.72
2019-05-18T14:15:05.750Z,25.65
2019-05-18T14:17:34.017Z,25.62
2019-05-18T14:20:02.245Z,25.61
2019-05-18T14:22:30.431Z,25.54
2019-05-18T14:24:58.647Z,25.33
2019-05-18T14:27:26.869Z,25.14
2019-05-18T14:29:55.092Z,25.09
2019-05-18T14:32:23.350Z,24.95
2019-05-18T14:34:51.563Z,24.94
2019-05-18T14:37:19.772Z,24.92
2019-05-18T14:39:47.992Z,24.90
2019-05-18T14:42:16.196Z,24.96
2019-05-18T14:44:44.412Z,25.07
2019-05-18T14:47:12.613Z,25.15
2019-05-18T14:49:40.831Z,25.21
2019-05-18T14:52:11.971Z,25.30
2019-05-18T14:54:38.980Z,25.37
2019-05-18T14:57:07.258Z,25.44
2019-05-18T14:59:35.489Z,23.85
2019-05-18T15:02:03.735Z,25.50
2019-05-18T15:04:32.000Z,25.45
2019-05-18T15:07:00.215Z,25.43
2019-05-18T15:09:28.453Z,25.42
2019-05-18T15:11:56.653Z,25.45
2019-05-18T15:14:24.863Z,25.46
2019-05-18T15:16:53.306Z,25.42
2019-05-18T15:19:21.593Z,25.34
2019-05-18T15:21:49.790Z,25.37
2019-05-18T15:24:18.011Z,25.42
2019-05-18T15:26:46.259Z,25.45
2019-05-18T15:29:14.469Z,25.45
2019-05-18T15:31:42.887Z,25.46
2019-05-18T15:34:11.107Z,25.50
2019-05-18T15:36:39.311Z,25.56
2019-05-18T15:39:07.583Z,25.54
2019-05-18T15:41:35.793Z,25.58
2019-05-18T15:44:04.014Z,25.57
2019-05-18T15:46:32.218Z,25.57
2019-05-18T15:49:00.606Z,25.54
2019-05-18T15:51:28.879Z,25.44
2019-05-18T15:53:57.117Z,25.31
2019-05-18T15:56:25.321Z,25.11
2019-05-18T15:58:53.526Z,25.01
2019-05-18T16:01:21.753Z,24.75
2019-05-18T16:03:49.961Z,24.44
2019-05-18T16:06:18.214Z,24.20
2019-05-18T16:08:46.427Z,23.99
2019-05-18T16:11:14.657Z,23.88
2019-05-18T16:13:42.906Z,23.74
2019-05-18T16:16:11.137Z,23.65
2019-05-18T16:18:39.343Z,23.52
2019-05-18T16:21:07.561Z,23.37
2019-05-18T16:23:35.770Z,23.25
2019-05-18T16:26:04.002Z,23.12
2019-05-18T16:28:32.243Z,23.04
2019-05-18T16:31:00.575Z,22.93
2019-05-18T16:33:28.787Z,22.88
2019-05-18T16:35:57.007Z,22.86
2019-05-18T16:38:25.257Z,22.84
2019-05-18T16:40:53.484Z,22.83
2019-05-18T16:43:21.699Z,22.88
2019-05-18T16:45:49.932Z,22.96
2019-05-18T16:48:18.157Z,23.02
2019-05-18T16:50:46.652Z,23.06
2019-05-18T16:53:15.589Z,23.10
2019-05-18T16:55:43.905Z,23.21
2019-05-18T16:58:12.119Z,23.36
2019-05-18T17:00:40.338Z,23.48
2019-05-18T17:03:08.567Z,23.55
2019-05-18T17:05:36.992Z,23.55
2019-05-18T17:08:05.727Z,23.45
2019-05-18T17:10:34.008Z,23.36
2019-05-18T17:13:02.244Z,23.26
2019-05-18T17:15:30.468Z,23.10
2019-05-18T17:17:58.844Z,22.98
2019-05-18T17:20:27.814Z,22.92
2019-05-18T17:22:56.076Z,22.87
2019-05-18T17:25:24.505Z,22.80
2019-05-18T17:27:52.705Z,22.78
2019-05-18T17:30:21.009Z,22.72
2019-05-18T17:32:49.214Z,22.72
2019-05-18T17:35:17.452Z,22.65
2019-05-18T17:37:45.680Z,22.53
2019-05-18T17:40:14.071Z,22.39
2019-05-18T17:42:42.289Z,22.31
2019-05-18T17:45:10.514Z,22.21
2019-05-18T17:47:38.784Z,22.19
2019-05-18T17:50:10.424Z,22.13
2019-05-18T17:52:38.659Z,22.05
2019-05-18T17:55:06.960Z,21.95
2019-05-18T17:57:35.177Z,21.87
2019-05-18T18:00:04.953Z,21.81
2019-05-18T18:02:33.450Z,21.72
2019-05-18T18:05:01.678Z,21.69
2019-05-18T18:07:29.933Z,21.64
2019-05-18T18:09:58.161Z,21.57
2019-05-18T18:12:26.364Z,21.47
2019-05-18T18:14:54.585Z,21.35
2019-05-18T18:17:22.832Z,21.25
2019-05-18T18:19:51.104Z,21.16
2019-05-18T18:22:19.278Z,21.09
2019-05-18T18:24:47.663Z,21.02
2019-05-18T18:27:24.739Z,20.95
2019-05-18T18:29:45.873Z,20.84
2019-05-18T18:32:14.289Z,20.73
2019-05-18T18:34:42.501Z,20.67
2019-05-18T18:37:10.802Z,20.60
2019-05-18T18:39:39.043Z,20.53
2019-05-18T18:42:07.353Z,20.46
2019-05-18T18:44:35.625Z,20.41
2019-05-18T18:47:03.851Z,20.34
2019-05-18T18:49:32.188Z,20.25
2019-05-18T18:52:00.433Z,20.20
2019-05-18T18:54:28.621Z,20.14
2019-05-18T18:56:56.910Z,20.10
2019-05-18T18:59:25.193Z,20.05
2019-05-18T19:01:53.411Z,19.98
2019-05-18T19:04:21.648Z,19.93
2019-05-18T19:06:49.871Z,19.90
2019-05-18T19:09:18.088Z,19.92
2019-05-18T19:11:46.358Z,19.90
2019-05-18T19:14:14.590Z,19.84
2019-05-18T19:16:42.801Z,19.77
2019-05-18T19:19:11.018Z,19.67
2019-05-18T19:21:39.257Z,19.60
2019-05-18T19:24:07.483Z,19.52
2019-05-18T19:26:35.824Z,19.46
2019-05-18T19:29:04.030Z,19.40
2019-05-18T19:31:32.341Z,19.37
2019-05-18T19:34:00.567Z,19.33
2019-05-18T19:36:28.799Z,19.28
2019-05-18T19:38:57.037Z,19.22
2019-05-18T19:41:25.928Z,19.15
2019-05-18T19:43:54.754Z,19.06
2019-05-18T19:46:22.961Z,17.94
2019-05-18T19:48:51.188Z,18.93
2019-05-18T19:51:19.582Z,18.87
2019-05-18T19:53:47.847Z,18.80
2019-05-18T19:56:16.063Z,18.74
2019-05-18T19:58:44.324Z,18.70
2019-05-18T20:01:12.891Z,18.67
2019-05-18T20:03:41.066Z,18.64
2019-05-18T20:06:09.334Z,18.54
2019-05-18T20:08:37.568Z,18.54
2019-05-18T20:11:06.225Z,18.50
2019-05-18T20:13:34.466Z,18.47
2019-05-18T20:16:02.957Z,18.43
2019-05-18T20:18:31.260Z,18.21
2019-05-18T20:20:59.512Z,18.21
2019-05-18T20:23:27.739Z,18.12
2019-05-18T20:25:55.954Z,18.02
2019-05-18T20:28:24.459Z,17.93
2019-05-18T20:30:52.711Z,17.86
2019-05-18T20:33:20.984Z,17.79
2019-05-18T20:35:49.183Z,17.71
2019-05-18T20:38:17.401Z,17.64
2019-05-18T20:40:45.673Z,17.58
2019-05-18T20:43:14.008Z,17.52
2019-05-18T20:45:42.274Z,17.47
2019-05-18T20:48:10.519Z,17.41
2019-05-18T20:50:38.740Z,17.36
2019-05-18T20:53:06.986Z,17.34
2019-05-18T20:55:35.207Z,17.28
2019-05-18T20:58:03.455Z,17.22
2019-05-18T21:00:31.651Z,17.16
2019-05-18T21:02:59.906Z,17.09
2019-05-18T21:05:28.113Z,17.01
2019-05-18T21:07:56.340Z,16.92
2019-05-18T21:10:24.582Z,16.84
2019-05-18T21:12:52.876Z,16.76
2019-05-18T21:15:21.043Z,16.70
2019-05-18T21:17:49.278Z,16.63
2019-05-18T21:20:17.512Z,16.58
2019-05-18T21:22:45.776Z,16.53
2019-05-18T21:25:14.064Z,16.48
2019-05-18T21:27:42.322Z,16.45
2019-05-18T21:30:10.562Z,16.41
2019-05-18T21:32:38.793Z,16.36
2019-05-18T21:35:07.416Z,16.32
2019-05-18T21:37:35.591Z,16.26
2019-05-18T21:40:05.466Z,16.22
2019-05-18T21:42:33.670Z,16.18
2019-05-18T21:45:02.247Z,16.13
2019-05-18T21:47:30.643Z,16.10
2019-05-18T21:49:59.048Z,16.05
2019-05-18T21:52:27.265Z,15.99
2019-05-18T21:54:55.522Z,15.97
2019-05-18T21:57:23.880Z,15.90
2019-05-18T21:59:52.211Z,15.90
2019-05-18T22:02:20.430Z,15.85
2019-05-18T22:04:48.666Z,15.81
2019-05-18T22:07:16.901Z,15.76
2019-05-18T22:09:45.118Z,15.72
2019-05-18T22:12:13.556Z,15.69
2019-05-18T22:14:41.785Z,15.65
2019-05-18T22:17:09.988Z,15.62
2019-05-18T22:19:38.201Z,15.57
2019-05-18T22:22:06.441Z,15.53
2019-05-18T22:24:34.851Z,15.49
2019-05-18T22:27:03.073Z,15.45
2019-05-18T22:29:31.302Z,15.40
2019-05-18T22:31:59.558Z,15.35
2019-05-18T22:34:27.768Z,15.32
2019-05-18T22:36:56.020Z,15.31
2019-05-18T22:39:26.661Z,15.29
2019-05-18T22:41:54.149Z,15.26
2019-05-18T22:44:22.384Z,15.24
2019-05-18T22:46:50.681Z,15.22
2019-05-18T22:49:18.904Z,15.19
2019-05-18T22:51:47.124Z,15.14
2019-05-18T22:54:15.344Z,15.11
2019-05-18T22:56:43.583Z,15.08
2019-05-18T22:59:11.842Z,15.05
2019-05-18T23:01:40.069Z,15.01
2019-05-18T23:04:08.291Z,14.97
2019-05-18T23:06:36.542Z,14.94
2019-05-18T23:09:06.005Z,14.91
2019-05-18T23:11:34.202Z,14.89
2019-05-18T23:14:02.437Z,14.86
2019-05-18T23:16:30.638Z,14.83
2019-05-18T23:18:58.850Z,14.78
2019-05-18T23:21:34.495Z,14.73
2019-05-18T23:24:02.817Z,14.67
2019-05-18T23:26:31.237Z,14.63
2019-05-18T23:28:59.542Z,14.60
2019-05-18T23:31:27.764Z,14.56
2019-05-18T23:33:55.993Z,14.52
2019-05-18T23:36:24.226Z,14.49
2019-05-18T23:38:52.582Z,14.43
2019-05-18T23:41:20.795Z,14.40
2019-05-18T23:43:48.980Z,14.35
2019-05-18T23:46:17.291Z,14.32
2019-05-18T23:48:45.489Z,14.27
2019-05-18T23:51:13.725Z,14.24
2019-05-18T23:53:42.051Z,14.22
2019-05-18T23:56:10.264Z,14.19
2019-05-18T23:58:38.489Z,14.18
